CYVRCYCD

Guest
Details From CYVR - Vancouver Intl
To CYCD - Nanaimo
Flight Number -
Tags generated
Created
Modified
Stats Distance 28 nm / 52 km
Max Altitude 0 ft / 0 m
Waypoints 2
Social Downloads 0
Likes 0
Share VATSIM

Download

Looking for another format? Having issues loading an existing format? Contact us
Advertisement - Login to hide

Notes

Basic altitude profile: - Ascent Rate: 2500ft/min - Ascent Speed: 250kts - Cruise Altitude: 35000ft - Cruise Speed: 420kts - Descent Rate: 1500ft/min - Descent Speed: 250kts Options: - Use NATs: yes - Use PACOTS: yes - Use low airways: no - Use high airways: yes

Route

CYVR CYCD

ID Type Via Altitude Latitude Longitude Leg Dist Tot Dist Heading (true) Name
O CYVR APT - 0 ft / 0 m 49.19233˚ -123.18799˚ - 0 nm - Vancouver Intl
O CYCD APT - 0 ft / 0 m 49.05237˚ -123.87011˚ 28 nm 28 nm 253° / 252° Nanaimo

Altitude Profile

Advertisement - Login to hide

CYVR

Details ICAO CYVR (YVR)
Name Vancouver Intl
Region Canada
Timezone America/Vancouver (UTC-8.0)
Stats Elevation 14 ft / 4 m (AMSL)
Location 49.192331° -123.187993°
Runways 4
Magnetic Variation 16.267° E

METAR

CYVR 130900Z 03004KT 330V040 20SM BKN100 BKN150 05/05 A3044 RMK AC6AC1 AC TR SLP308

Decode

TAF

TAF CYVR 130838Z 1309/1412 31005KT P6SM SCT110 BKN200 PROB30 1311/1317 1/4SM FG VV002 FM131900 26006KT P6SM SCT250 BECMG 1402/1404 14008KT RMK NXT FCST BY 131200Z

Decode

Departure Runways

ID Width Length Bearing (true) Bearing (mag) Surface Threshold Offset Overrun Length
08 75 ft / 23 m 3,497 ft / 1,066 m 100.01° 83.74° Concrete 0 ft / 0 m 0 ft / 0 m
08L 200 ft / 61 m 9,910 ft / 3,021 m 99.80° 83.53° Concrete 0 ft / 0 m 0 ft / 0 m
08R 200 ft / 61 m 11,491 ft / 3,502 m 99.94° 83.67° Asphalt 0 ft / 0 m 0 ft / 0 m
12 200 ft / 61 m 7,291 ft / 2,222 m 141.91° 125.64° Asphalt 0 ft / 0 m 0 ft / 0 m
26 75 ft / 23 m 3,497 ft / 1,066 m 280.02° 263.75° Concrete 0 ft / 0 m 0 ft / 0 m
26L 200 ft / 61 m 11,491 ft / 3,502 m 279.97° 263.70° Asphalt 0 ft / 0 m 0 ft / 0 m
26R 200 ft / 61 m 9,910 ft / 3,021 m 279.83° 263.56° Concrete 0 ft / 0 m 0 ft / 0 m
30 200 ft / 61 m 7,291 ft / 2,222 m 321.93° 305.66° Asphalt 0 ft / 0 m 0 ft / 0 m

CYCD

Details ICAO CYCD (YCD)
Name Nanaimo
Region Canada
Timezone America/Vancouver (UTC-8.0)
Stats Elevation 93 ft / 28 m (AMSL)
Location 49.052367° -123.870111°
Runways 1
Magnetic Variation 16.343° E

METAR

Not found

TAF

TAF CYCD 122338Z 1300/1305 VRB03KT P6SM BKN250 RMK NXT FCST WILL BE ISSUED AT 131545Z

Decode

Destination Runways

ID Width Length Bearing (true) Bearing (mag) Surface Threshold Offset Overrun Length
16 200 ft / 61 m 5,018 ft / 1,529 m 180.75° 164.41° Asphalt 0 ft / 0 m 0 ft / 0 m
34 200 ft / 61 m 5,018 ft / 1,529 m 0.75° 344.41° Asphalt 1,001 ft / 305 m 0 ft / 0 m

Popular Alternatives